Time;durP1;ratioP1;P1;durP2;ratioP2;P2;SDS_P1;SDS_P2;PMS_P1;PMS_P2;Temp;Humidity;BMP_temperature;BMP_pressure;BME280_temperature;BME280_humidity;BME280_pressure;Samples;Min_cycle;Max_cycle;Signal;HPM_P1;HPM_P2
2022/07/29 00:01:01;;;;;;;8.48;4.90;;;;;;;14.20;68.64;100841.09;1701201;83;25623;-67
2022/07/29 00:03:27;;;;;;;7.53;4.20;;;;;;;14.18;68.86;100835.98;1679163;84;27422;-67
2022/07/29 00:05:53;;;;;;;8.38;5.10;;;;;;;14.15;68.87;100836.61;1701033;83;25391;-67
2022/07/29 00:08:20;;;;;;;10.98;4.72;;;;;;;14.11;68.99;100827.47;1701107;83;25579;-67
2022/07/29 00:10:46;;;;;;;6.85;4.35;;;;;;;14.11;69.05;100842.43;1701082;84;25491;-67
2022/07/29 00:13:12;;;;;;;5.90;4.45;;;;;;;14.12;69.28;100843.25;1701164;84;25551;-67
2022/07/29 00:15:39;;;;;;;8.53;4.25;;;;;;;14.11;69.46;100838.35;1714046;83;27293;-67
2022/07/29 00:18:06;;;;;;;8.03;4.67;;;;;;;14.12;69.76;100841.32;1721347;83;25741;-67
2022/07/29 00:20:32;;;;;;;8.18;4.67;;;;;;;14.12;69.63;100848.13;1721470;83;25557;-67
2022/07/29 00:22:58;;;;;;;7.05;4.37;;;;;;;14.13;69.87;100842.11;1721398;83;26122;-67
2022/07/29 00:25:25;;;;;;;15.55;5.45;;;;;;;14.13;69.85;100840.75;1721473;83;25396;-67
2022/07/29 00:27:51;;;;;;;8.10;4.72;;;;;;;14.10;69.98;100846.29;1721429;83;27398;-67
2022/07/29 00:30:17;;;;;;;9.98;4.72;;;;;;;14.10;70.05;100842.20;1721432;83;25598;-67
2022/07/29 00:32:43;;;;;;;7.28;4.42;;;;;;;14.09;70.40;100841.95;1721452;83;25563;-67
2022/07/29 00:37:55;;;;;;;8.23;4.83;;;;;;;14.07;70.61;100842.05;1721482;83;25426;-67
2022/07/29 00:40:22;;;;;;;7.40;4.45;;;;;;;14.07;70.69;100841.48;1690907;83;28108;-67
2022/07/29 00:42:51;;;;;;;9.30;4.83;;;;;;;14.07;70.90;100848.28;1721364;82;25568;-67
2022/07/29 00:45:18;;;;;;;7.72;4.22;;;;;;;14.08;70.56;100843.63;1721572;83;25476;-67
2022/07/29 00:47:45;;;;;;;5.60;4.58;;;;;;;14.08;70.70;100844.98;1721424;83;25667;-67
2022/07/29 00:50:13;;;;;;;8.73;5.12;;;;;;;14.08;70.63;100846.34;1721487;83;25407;-67
2022/07/29 00:52:42;;;;;;;8.40;4.70;;;;;;;14.07;70.48;100841.48;1721427;83;27376;-67
2022/07/29 00:55:13;;;;;;;8.13;5.22;;;;;;;14.06;70.78;100843.16;1721509;82;25540;-67
2022/07/29 00:57:40;;;;;;;6.22;4.08;;;;;;;14.04;70.85;100840.75;1720691;83;25413;-67
2022/07/29 01:00:15;;;;;;;7.75;4.70;;;;;;;14.03;71.05;100839.17;1721384;83;26102;-67
2022/07/29 01:02:41;;;;;;;13.70;5.58;;;;;;;14.01;71.01;100839.48;1721585;83;25588;-67
2022/07/29 01:05:09;;;;;;;6.65;4.20;;;;;;;14.01;70.99;100838.13;1721525;83;28178;-67
2022/07/29 01:07:36;;;;;;;5.70;4.10;;;;;;;13.99;71.01;100834.11;1721345;83;25639;-67
2022/07/29 01:10:06;;;;;;;8.23;5.08;;;;;;;13.98;70.93;100834.67;1721446;83;25571;-67
2022/07/29 01:12:36;;;;;;;11.78;5.70;;;;;;;13.96;71.01;100834.73;1721365;83;25406;-67
2022/07/29 01:15:06;;;;;;;8.53;4.47;;;;;;;13.94;71.04;100836.41;1715743;83;25688;-67
2022/07/29 01:17:41;;;;;;;12.65;5.00;;;;;;;13.94;71.21;100831.55;1694770;83;27383;-67
2022/07/29 01:20:22;;;;;;;8.60;4.60;;;;;;;13.92;71.17;100831.86;1694196;84;25450;-68
2022/07/29 01:23:09;;;;;;;8.20;4.50;;;;;;;13.90;71.09;100828.66;1694260;84;25427;-67
2022/07/29 01:25:50;;;;;;;7.90;4.85;;;;;;;13.89;71.43;100827.62;1694794;83;25602;-67
2022/07/29 01:28:43;;;;;;;7.08;4.25;;;;;;;13.85;71.08;100823.37;1693815;84;25542;-68
2022/07/29 01:31:11;;;;;;;6.58;4.50;;;;;;;13.83;71.62;100819.61;1694859;84;27175;-67
2022/07/29 01:33:48;;;;;;;4.97;4.03;;;;;;;13.80;71.48;100828.97;1694702;84;25793;-67
2022/07/29 01:36:25;;;;;;;8.90;4.30;;;;;;;13.75;71.62;100826.40;1694770;84;25546;-67
2022/07/29 01:39:06;;;;;;;4.75;4.05;;;;;;;13.73;71.83;100825.92;1694639;83;26270;-67
2022/07/29 01:41:36;;;;;;;7.53;3.98;;;;;;;13.68;71.72;100822.79;1694787;84;25427;-66
2022/07/29 01:44:16;;;;;;;7.30;4.00;;;;;;;13.66;71.96;100835.91;1694820;83;27320;-66
2022/07/29 01:46:48;;;;;;;7.42;4.22;;;;;;;13.64;71.89;100829.98;1694590;84;25622;-67
2022/07/29 01:49:20;;;;;;;10.60;4.60;;;;;;;13.60;71.97;100835.80;1694411;83;25638;-66
2022/07/29 01:52:00;;;;;;;7.22;4.58;;;;;;;13.56;72.09;100834.27;1694903;84;25999;-68
2022/07/29 01:54:47;;;;;;;11.15;4.50;;;;;;;13.54;72.12;100831.08;1694970;84;25573;-67
2022/07/29 01:57:20;;;;;;;7.20;4.30;;;;;;;13.52;72.10;100836.56;1694945;83;27571;-68
2022/07/29 01:59:48;;;;;;;5.85;3.90;;;;;;;13.50;71.82;100838.80;1665841;84;25622;-66
2022/07/29 02:02:18;;;;;;;7.17;4.73;;;;;;;13.49;72.18;100838.58;1695196;82;25632;-68
2022/07/29 02:04:48;;;;;;;6.25;4.10;;;;;;;13.43;72.26;100834.65;1694993;84;25401;-68
2022/07/29 02:07:19;;;;;;;5.78;3.70;;;;;;;13.39;72.29;100828.79;1694894;84;25448;-68
2022/07/29 02:09:50;;;;;;;7.33;4.25;;;;;;;13.33;72.31;100836.30;1694994;84;26926;-68
2022/07/29 02:12:19;;;;;;;4.62;4.00;;;;;;;13.31;72.52;100840.39;1694828;84;25620;-68
2022/07/29 02:14:48;;;;;;;;;;;;;;;13.28;72.66;100839.12;1697588;83;25467;-67
2022/07/29 02:17:24;;;;;;;5.47;4.37;;;;;;;13.25;73.09;100839.74;1680990;83;25502;-67
2022/07/29 02:19:53;;;;;;;11.20;4.62;;;;;;;13.21;73.01;100841.47;1709162;83;25620;-68
2022/07/29 02:22:21;;;;;;;6.47;4.17;;;;;;;13.20;73.21;100841.23;1711303;82;27986;-67
2022/07/29 02:24:50;;;;;;;8.60;4.10;;;;;;;13.17;73.21;100837.22;1711027;83;25572;-68
2022/07/29 02:27:19;;;;;;;8.30;4.67;;;;;;;13.16;73.38;100838.89;1711179;83;25572;-67
2022/07/29 02:29:47;;;;;;;7.45;4.87;;;;;;;13.14;73.30;100834.33;1711097;83;25521;-67
2022/07/29 02:32:16;;;;;;;8.58;4.72;;;;;;;13.12;73.20;100831.92;1711031;83;25449;-68
2022/07/29 02:34:43;;;;;;;6.60;4.73;;;;;;;13.09;73.52;100836.62;1711217;83;27520;-67
2022/07/29 02:37:12;;;;;;;6.83;4.90;;;;;;;13.05;73.27;100835.09;1710940;83;25578;-68
2022/07/29 02:39:41;;;;;;;7.25;4.60;;;;;;;13.02;73.54;100832.20;1710988;83;25442;-67
2022/07/29 02:42:11;;;;;;;8.23;4.90;;;;;;;12.98;73.59;100838.81;1711144;82;34776;-67
2022/07/29 02:44:38;;;;;;;6.97;4.37;;;;;;;12.97;73.72;100836.41;1711043;83;25399;-67
2022/07/29 02:47:19;;;;;;;10.10;4.50;;;;;;;12.95;73.80;100839.99;1710965;83;26842;-67
2022/07/29 02:50:08;;;;;;;6.70;4.33;;;;;;;12.93;73.84;100843.02;1709523;83;25447;-67
2022/07/29 02:52:47;;;;;;;5.25;4.00;;;;;;;12.92;73.79;100840.61;1684375;83;25544;-68
2022/07/29 02:55:46;;;;;;;9.05;5.25;;;;;;;12.90;74.04;100839.56;1711230;82;25608;-67
2022/07/29 02:58:22;;;;;;;7.87;4.28;;;;;;;12.96;74.03;100853.83;1708992;83;25586;-68
2022/07/29 03:00:51;;;;;;;6.53;4.78;;;;;;;12.81;74.03;100838.72;1711048;83;28044;-67
2022/07/29 03:03:21;;;;;;;9.40;4.67;;;;;;;12.81;74.64;100841.44;1711083;83;33188;-67
2022/07/29 03:05:47;;;;;;;5.78;4.20;;;;;;;12.77;74.48;100842.61;1711017;83;25625;-67
2022/07/29 03:08:16;;;;;;;6.25;4.42;;;;;;;12.76;74.22;100843.72;1710924;83;25610;-67
2022/07/29 03:10:45;;;;;;;6.08;4.00;;;;;;;12.75;74.39;100842.66;1711036;82;25629;-67
2022/07/29 03:13:13;;;;;;;7.60;4.37;;;;;;;12.73;74.35;100844.33;1711147;83;27414;-67
2022/07/29 03:15:40;;;;;;;7.00;4.33;;;;;;;12.71;74.65;100850.06;1712627;83;25688;-67
2022/07/29 03:18:08;;;;;;;7.05;4.70;;;;;;;12.70;74.79;100849.84;1691174;83;25656;-67
2022/07/29 03:20:34;;;;;;;8.43;5.08;;;;;;;12.71;74.88;100843.28;1721476;83;26022;-68
2022/07/29 03:23:00;;;;;;;9.88;5.08;;;;;;;12.74;75.18;100847.87;1721562;83;25653;-68
2022/07/29 03:25:27;;;;;;;6.35;4.40;;;;;;;12.76;75.28;100846.99;1721476;83;27349;-68
2022/07/29 03:27:53;;;;;;;7.15;5.37;;;;;;;12.76;75.27;100851.06;1721405;83;25958;-68
2022/07/29 03:30:19;;;;;;;10.10;4.92;;;;;;;12.76;75.28;100851.06;1721585;83;25479;-68
2022/07/29 03:32:45;;;;;;;7.58;4.22;;;;;;;12.75;75.16;100852.16;1721543;83;25441;-68
2022/07/29 03:35:11;;;;;;;8.28;4.85;;;;;;;12.74;75.12;100851.38;1721612;83;25569;-68
2022/07/29 03:37:37;;;;;;;7.30;4.83;;;;;;;12.76;75.33;100853.78;1721563;83;27317;-68
2022/07/29 03:40:08;;;;;;;7.87;5.08;;;;;;;12.76;75.32;100852.42;1721359;83;25615;-68
2022/07/29 03:42:39;;;;;;;9.35;4.65;;;;;;;12.75;75.50;100847.53;1721519;83;25493;-68
2022/07/29 03:45:10;;;;;;;7.10;5.25;;;;;;;12.76;75.62;100847.79;1721460;83;25402;-68
2022/07/29 03:47:41;;;;;;;9.55;4.45;;;;;;;12.78;75.57;100848.84;1721528;83;25589;-67
2022/07/29 03:50:12;;;;;;;8.53;5.30;;;;;;;12.80;76.00;100850.11;1721496;83;28019;-68
2022/07/29 03:52:40;;;;;;;6.40;4.85;;;;;;;12.83;75.84;100850.06;1721424;83;25594;-68
2022/07/29 03:55:09;;;;;;;6.58;4.50;;;;;;;12.84;75.84;100856.55;1721494;83;25466;-68
2022/07/29 03:57:38;;;;;;;8.25;4.70;;;;;;;12.85;76.08;100847.27;1721553;83;25663;-68
2022/07/29 04:00:07;;;;;;;7.67;4.40;;;;;;;12.88;76.17;100845.86;1721581;83;25477;-68
2022/07/29 04:02:34;;;;;;;6.80;4.58;;;;;;;12.88;76.26;100848.02;1721610;83;28134;-68
2022/07/29 04:05:00;;;;;;;9.55;4.67;;;;;;;12.91;76.55;100845.25;1721404;83;25699;-68
2022/07/29 04:07:26;;;;;;;6.72;4.58;;;;;;;12.95;76.69;100846.22;1721495;83;25671;-68
2022/07/29 04:09:52;;;;;;;8.55;4.97;;;;;;;12.99;77.23;100845.86;1721681;83;25407;-68
2022/07/29 04:12:20;;;;;;;7.83;4.60;;;;;;;13.05;77.23;100856.81;1721843;83;25196;-68
2022/07/29 04:14:47;;;;;;;6.62;4.03;;;;;;;13.12;77.49;100853.65;1721723;83;27498;-68
2022/07/29 04:17:13;;;;;;;5.35;4.35;;;;;;;13.18;77.58;100857.05;1721558;83;25840;-68
2022/07/29 04:19:39;;;;;;;8.60;4.20;;;;;;;13.23;77.69;100851.48;1721943;83;25469;-68
2022/07/29 04:22:05;;;;;;;4.33;3.92;;;;;;;13.29;77.66;100850.78;1722274;83;25616;-68
2022/07/29 04:24:31;;;;;;;5.85;3.98;;;;;;;13.33;77.73;100846.34;1722264;83;25546;-68
2022/07/29 04:26:57;;;;;;;7.53;3.92;;;;;;;13.39;77.93;100855.39;1722187;83;27390;-68
2022/07/29 04:29:24;;;;;;;9.15;4.15;;;;;;;13.46;78.02;100849.51;1722131;83;25533;-68
2022/07/29 04:31:50;;;;;;;9.53;4.20;;;;;;;13.52;78.56;100850.16;1722277;83;25632;-68
2022/07/29 04:34:16;;;;;;;7.35;3.37;;;;;;;13.60;78.69;100850.75;1722516;83;25644;-68
2022/07/29 04:36:42;;;;;;;5.00;4.00;;;;;;;13.68;79.31;100852.69;1721602;83;25635;-68
2022/07/29 04:39:08;;;;;;;5.33;3.33;;;;;;;13.76;79.12;100855.20;1721505;83;27412;-68
2022/07/29 04:41:34;;;;;;;4.10;3.70;;;;;;;13.80;78.88;100848.80;1721457;83;25598;-68
2022/07/29 04:44:04;;;;;;;12.00;3.60;;;;;;;13.92;79.01;100849.53;1721513;83;25477;-68
2022/07/29 04:46:29;;;;;;;7.03;3.83;;;;;;;14.00;79.15;100850.11;1721286;83;25610;-68
2022/07/29 04:48:55;;;;;;;7.90;3.60;;;;;;;14.10;79.26;100855.02;1721441;83;25406;-68
2022/07/29 04:51:21;;;;;;;6.65;3.47;;;;;;;14.17;79.23;100856.12;1721494;83;27326;-68
2022/07/29 04:53:47;;;;;;;4.30;2.83;;;;;;;14.27;79.39;100856.91;1721316;83;25611;-68
2022/07/29 04:56:13;;;;;;;5.92;3.33;;;;;;;14.34;79.20;100855.33;1721440;83;25635;-69
2022/07/29 04:58:40;;;;;;;6.42;3.35;;;;;;;14.44;79.31;100855.58;1721327;83;26355;-68
2022/07/29 05:01:06;;;;;;;5.53;3.37;;;;;;;14.53;79.36;100852.84;1721507;82;25356;-68
2022/07/29 05:03:32;;;;;;;5.70;3.52;;;;;;;14.65;79.31;100865.83;1721551;83;27457;-68
2022/07/29 05:05:58;;;;;;;6.42;2.80;;;;;;;14.74;79.26;100869.33;1721390;83;26455;-68
2022/07/29 05:08:24;;;;;;;5.17;3.20;;;;;;;14.84;79.47;100868.98;1721413;83;25427;-68
2022/07/29 05:10:50;;;;;;;3.58;3.27;;;;;;;14.95;79.34;100866.74;1721364;83;26326;-68
2022/07/29 05:13:16;;;;;;;3.12;2.83;;;;;;;15.06;79.34;100869.34;1721436;83;25567;-68
2022/07/29 05:15:42;;;;;;;3.10;2.72;;;;;;;15.16;79.10;100873.64;1721407;83;27410;-68
2022/07/29 05:18:09;;;;;;;3.22;2.65;;;;;;;15.26;79.25;100875.22;1702844;83;25720;-68
2022/07/29 05:20:35;;;;;;;4.12;2.52;;;;;;;15.38;79.15;100875.33;1701017;84;25590;-68
2022/07/29 05:23:02;;;;;;;5.97;2.67;;;;;;;15.48;79.07;100875.53;1701032;83;25823;-68
2022/07/29 05:25:29;;;;;;;4.35;2.75;;;;;;;15.58;78.87;100873.80;1701005;84;25625;-68
2022/07/29 05:27:56;;;;;;;7.90;2.72;;;;;;;15.69;78.88;100870.91;1701000;84;27324;-68
2022/07/29 05:30:22;;;;;;;4.37;2.33;;;;;;;15.83;78.94;100871.27;1700927;83;25403;-68
2022/07/29 05:32:49;;;;;;;3.33;1.95;;;;;;;15.95;78.85;100868.62;1701023;84;25404;-68
2022/07/29 05:35:16;;;;;;;5.45;3.22;;;;;;;16.10;78.53;100871.91;1700919;84;27935;-68
2022/07/29 05:37:42;;;;;;;10.05;3.15;;;;;;;16.26;78.63;100881.11;1701006;84;25417;-68
2022/07/29 05:40:10;;;;;;;3.85;1.82;;;;;;;16.41;78.33;100879.14;1700945;84;27389;-68
2022/07/29 05:42:36;;;;;;;6.10;1.67;;;;;;;16.57;77.85;100877.16;1700926;84;25507;-68
2022/07/29 05:45:03;;;;;;;7.40;4.25;;;;;;;16.71;77.39;100872.19;1700995;83;25661;-68
2022/07/29 05:47:30;;;;;;;4.03;2.33;;;;;;;16.89;77.28;100876.13;1700936;84;25656;-68
2022/07/29 05:49:56;;;;;;;2.77;1.92;;;;;;;17.08;77.19;100869.59;1701055;84;25584;-68
2022/07/29 05:52:23;;;;;;;5.83;1.70;;;;;;;17.28;76.89;100869.83;1700984;83;27313;-68
2022/07/29 05:54:49;;;;;;;3.17;1.40;;;;;;;17.47;76.35;100871.45;1700981;83;25467;-68
2022/07/29 05:57:18;;;;;;;3.87;1.42;;;;;;;17.63;75.61;100870.77;1700985;84;25609;-68
2022/07/29 05:59:45;;;;;;;2.05;1.05;;;;;;;17.76;75.01;100869.62;1701171;84;25680;-68
2022/07/29 06:02:11;;;;;;;4.00;1.22;;;;;;;17.90;74.68;100867.34;1701045;84;25605;-68
2022/07/29 06:04:37;;;;;;;2.30;1.12;;;;;;;18.00;74.09;100865.29;1701080;84;27330;-68
2022/07/29 06:07:04;;;;;;;2.40;1.25;;;;;;;18.10;73.63;100865.59;1701003;84;25564;-68
2022/07/29 06:09:30;;;;;;;15.63;2.42;;;;;;;18.23;73.59;100861.45;1700978;84;25587;-68
2022/07/29 06:11:57;;;;;;;1.15;1.05;;;;;;;18.39;73.52;100866.42;1701030;83;25629;-68
2022/07/29 06:14:25;;;;;;;2.72;1.10;;;;;;;18.53;72.95;100857.02;1701094;83;25589;-67
2022/07/29 06:16:51;;;;;;;5.28;1.77;;;;;;;18.70;72.67;100864.13;1700967;83;27410;-68
2022/07/29 06:19:17;;;;;;;10.35;1.60;;;;;;;18.83;72.40;100862.38;1700923;84;25721;-67
2022/07/29 06:21:45;;;;;;;6.65;4.03;;;;;;;19.02;72.26;100860.89;1701049;83;25463;-67
2022/07/29 06:24:13;;;;;;;3.70;1.85;;;;;;;19.21;71.93;100857.45;1700950;84;25617;-68
2022/07/29 06:26:40;;;;;;;1.62;1.30;;;;;;;19.37;71.31;100860.96;1701057;83;25486;-68
2022/07/29 06:29:08;;;;;;;4.85;1.12;;;;;;;19.56;70.60;100860.26;1701093;83;27313;-69
2022/07/29 06:31:34;;;;;;;7.22;1.35;;;;;;;19.72;70.10;100860.22;1701059;83;25662;-67
2022/07/29 06:34:01;;;;;;;6.25;1.30;;;;;;;19.91;69.37;100859.49;1701096;84;25626;-68
2022/07/29 06:36:30;;;;;;;19.70;2.02;;;;;;;20.12;69.42;100853.66;1701082;84;26386;-68
2022/07/29 06:38:56;;;;;;;7.05;1.70;;;;;;;20.37;69.12;100860.84;1701120;84;25491;-68
2022/07/29 06:41:23;;;;;;;4.10;1.10;;;;;;;20.63;68.45;100857.44;1701156;83;27395;-68
2022/07/29 06:43:51;;;;;;;1.82;1.00;;;;;;;20.84;67.54;100856.47;1701013;84;27211;-68
2022/07/29 06:46:19;;;;;;;1.35;0.82;;;;;;;21.08;66.41;100858.06;1701122;83;25633;-68
2022/07/29 06:48:47;;;;;;;2.50;1.07;;;;;;;21.31;66.00;100855.88;1701316;84;25632;-68
2022/07/29 06:51:13;;;;;;;1.65;1.32;;;;;;;21.55;65.75;100854.70;1701226;84;25444;-68
2022/07/29 06:53:40;;;;;;;3.95;1.00;;;;;;;21.83;64.84;100860.42;1701087;84;27277;-68
2022/07/29 06:56:12;;;;;;;2.05;0.90;;;;;;;22.08;64.07;100858.58;1701066;84;25608;-68
2022/07/29 06:58:38;;;;;;;2.42;1.02;;;;;;;22.27;62.99;100850.73;1701139;84;25423;-68
2022/07/29 07:01:06;;;;;;;3.72;1.10;;;;;;;22.49;62.79;100848.48;1701047;84;25685;-68
2022/07/29 07:03:33;;;;;;;3.25;1.00;;;;;;;22.78;61.95;100856.25;1701173;83;25415;-68
2022/07/29 07:06:00;;;;;;;3.55;0.90;;;;;;;23.01;61.02;100849.19;1701191;83;27301;-68
2022/07/29 07:08:26;;;;;;;1.65;1.07;;;;;;;23.25;60.37;100855.52;1701027;83;25503;-68
2022/07/29 07:10:52;;;;;;;9.68;1.70;;;;;;;23.52;59.90;100855.92;1701141;83;25601;-68
2022/07/29 07:13:19;;;;;;;1.72;0.80;;;;;;;23.80;59.47;100853.91;1701105;83;26319;-68
2022/07/29 07:15:48;;;;;;;3.58;1.10;;;;;;;24.11;58.43;100855.88;1701075;84;25574;-68
2022/07/29 07:18:15;;;;;;;2.17;1.43;;;;;;;24.39;57.71;100857.97;1701250;83;29582;-68
2022/07/29 07:20:42;;;;;;;2.60;1.05;;;;;;;24.64;56.53;100858.07;1700961;84;25414;-68
2022/07/29 07:23:09;;;;;;;2.33;1.00;;;;;;;24.91;56.14;100850.78;1701094;83;25635;-68
2022/07/29 07:25:35;;;;;;;4.80;1.20;;;;;;;25.22;55.80;100842.31;1701059;84;26545;-69
2022/07/29 07:28:03;;;;;;;1.27;0.90;;;;;;;25.47;54.77;100846.47;1701139;84;25486;-68
2022/07/29 07:30:29;;;;;;;8.10;1.65;;;;;;;25.73;53.79;100841.67;1701120;83;27505;-69
2022/07/29 07:32:55;;;;;;;8.70;3.10;;;;;;;25.98;53.19;100847.14;1700988;84;25594;-69
2022/07/29 07:35:22;;;;;;;13.08;2.90;;;;;;;26.30;52.95;100844.83;1701104;84;25551;-69
2022/07/29 07:37:48;;;;;;;4.83;1.27;;;;;;;26.61;52.43;100851.98;1701116;83;26362;-69
2022/07/29 07:40:15;;;;;;;1.25;0.90;;;;;;;26.87;51.50;100845.70;1701112;84;25429;-69
2022/07/29 07:42:43;;;;;;;5.33;0.80;;;;;;;27.14;50.67;100848.08;1701088;83;27317;-69
2022/07/29 07:45:11;;;;;;;4.10;0.90;;;;;;;27.41;50.26;100847.45;1701256;83;25567;-69
2022/07/29 07:47:38;;;;;;;2.12;0.70;;;;;;;27.74;49.63;100847.93;1701136;83;25629;-68
2022/07/29 07:50:08;;;;;;;3.10;1.00;;;;;;;28.08;48.85;100854.12;1701034;84;25705;-68
2022/07/29 07:52:38;;;;;;;2.02;0.95;;;;;;;28.32;48.19;100857.16;1701162;83;25426;-68
2022/07/29 07:55:07;;;;;;;3.98;1.10;;;;;;;28.57;46.10;100852.48;1661004;85;28766;-69
2022/07/29 07:57:33;;;;;;;3.05;1.35;;;;;;;28.77;46.06;100858.16;1669599;86;25608;-68
2022/07/29 07:59:59;;;;;;;3.35;0.80;;;;;;;29.03;45.14;100865.70;1701156;83;25522;-68
2022/07/29 08:02:25;;;;;;;4.67;0.90;;;;;;;29.26;44.54;100859.20;1701171;83;25848;-68
2022/07/29 08:04:51;;;;;;;4.62;1.50;;;;;;;29.44;43.28;100856.89;1701157;83;25463;-68
2022/07/29 08:07:17;;;;;;;3.00;0.88;;;;;;;29.59;42.50;100854.02;1701063;84;27458;-68
2022/07/29 08:09:43;;;;;;;2.65;1.07;;;;;;;29.59;42.11;100856.00;1700974;84;25424;-68
2022/07/29 08:12:10;;;;;;;2.10;1.00;;;;;;;29.81;41.64;100856.41;1701037;84;25404;-68
2022/07/29 08:14:36;;;;;;;2.02;0.80;;;;;;;29.80;41.25;100857.02;1701030;84;25685;-68
2022/07/29 08:17:02;;;;;;;1.20;0.80;;;;;;;29.89;40.96;100856.45;1701260;83;25553;-68
2022/07/29 08:19:28;;;;;;;2.55;1.15;;;;;;;29.73;41.16;100854.35;1721413;83;28343;-68
2022/07/29 08:21:54;;;;;;;3.70;1.50;;;;;;;30.02;41.12;100848.82;1721378;83;25635;-68
2022/07/29 08:27:07;;;;;;;3.35;2.45;;;;;;;30.73;40.19;100855.66;1721421;83;26470;-69
2022/07/29 08:29:33;;;;;;;3.50;1.05;;;;;;;31.20;40.12;100862.14;1684416;83;25641;-69
2022/07/29 08:32:00;;;;;;;2.00;0.70;;;;;;;31.64;39.36;100848.62;1721475;83;27283;-68
2022/07/29 08:34:28;;;;;;;2.40;1.00;;;;;;;32.16;38.62;100853.16;1721377;83;25812;-69
2022/07/29 08:36:56;;;;;;;3.08;0.80;;;;;;;32.56;37.48;100849.15;1721458;83;25394;-68
2022/07/29 08:39:23;;;;;;;3.98;0.88;;;;;;;32.58;35.34;100848.08;1721665;83;25635;-69
2022/07/29 08:41:50;;;;;;;2.37;0.70;;;;;;;32.55;35.36;100845.55;1721526;83;25693;-68
2022/07/29 08:44:19;;;;;;;1.83;0.90;;;;;;;32.55;35.36;100845.55;1721720;83;27319;-69
2022/07/29 08:46:45;;;;;;;1.20;0.80;;;;;;;32.61;34.57;100848.62;1721492;83;33090;-69
2022/07/29 08:49:12;;;;;;;2.98;0.70;;;;;;;32.62;34.92;100849.39;1721423;83;25499;-69
2022/07/29 08:51:41;;;;;;;3.22;0.70;;;;;;;32.36;34.45;100847.34;1721522;83;26377;-69
2022/07/29 08:54:10;;;;;;;1.77;0.68;;;;;;;31.89;34.14;100838.14;1721491;83;25433;-69
2022/07/29 08:56:38;;;;;;;2.90;0.85;;;;;;;31.53;34.23;100847.50;1721571;83;27505;-69
2022/07/29 08:59:06;;;;;;;1.65;0.62;;;;;;;31.69;34.62;100845.29;1721483;83;25427;-69
2022/07/29 09:01:34;;;;;;;2.98;0.80;;;;;;;32.12;33.43;100854.48;1721649;83;25395;-69
2022/07/29 09:04:04;;;;;;;2.37;0.85;;;;;;;32.03;32.90;100851.70;1721503;83;26391;-69
2022/07/29 09:06:34;;;;;;;2.17;0.95;;;;;;;31.61;31.88;100846.09;1721462;83;25568;-69
2022/07/29 09:09:01;;;;;;;1.75;0.90;;;;;;;30.89;32.88;100854.88;1721468;83;28102;-69
2022/07/29 09:11:28;;;;;;;1.07;0.70;;;;;;;30.59;33.33;100844.81;1721397;83;25595;-68
2022/07/29 09:13:54;;;;;;;3.15;0.95;;;;;;;30.88;33.85;100845.53;1721442;83;25625;-68
2022/07/29 09:16:20;;;;;;;4.40;0.90;;;;;;;31.39;33.57;100843.67;1721375;83;26386;-68
2022/07/29 09:18:47;;;;;;;2.35;0.75;;;;;;;32.05;33.39;100829.50;1721377;83;25384;-68
2022/07/29 09:24:11;;;;;;;3.20;1.15;;;;;;;33.16;32.28;100827.42;1721378;83;25550;-67
2022/07/29 09:26:44;;;;;;;0.85;0.70;;;;;;;33.63;31.78;100829.37;1721471;83;25530;-68
2022/07/29 09:29:17;;;;;;;2.95;0.80;;;;;;;33.91;30.29;100822.55;1684397;83;25708;-68
2022/07/29 09:31:46;;;;;;;2.08;0.80;;;;;;;33.98;30.02;100829.92;1721460;83;25462;-69
2022/07/29 09:34:19;;;;;;;1.42;0.98;;;;;;;34.18;29.45;100826.13;1684954;83;26591;-68
2022/07/29 09:36:48;;;;;;;2.00;0.80;;;;;;;34.18;29.83;100830.34;1720926;83;25746;-68
2022/07/29 09:39:28;;;;;;;2.75;0.78;;;;;;;34.08;29.32;100830.13;1721373;83;25398;-68
2022/07/29 09:41:58;;;;;;;1.77;0.90;;;;;;;33.84;29.21;100862.10;1655424;86;25780;-68
2022/07/29 09:44:25;;;;;;;3.00;0.82;;;;;;;33.32;28.79;100832.06;1655518;86;25659;-69
2022/07/29 09:46:56;;;;;;;1.87;1.10;;;;;;;32.70;28.93;100832.53;1655691;86;28077;-68
2022/07/29 09:49:23;;;;;;;1.32;0.70;;;;;;;32.23;29.50;100828.35;1654984;86;27203;-68
2022/07/29 09:52:09;;;;;;;4.45;0.80;;;;;;;32.82;30.22;100844.95;1655460;86;25743;-68
2022/07/29 09:54:37;;;;;;;1.30;0.72;;;;;;;32.82;30.22;100844.95;1655437;86;26308;-68
2022/07/29 09:57:12;;;;;;;0.60;0.60;;;;;;;33.20;30.22;100825.89;1655634;86;25493;-67
2022/07/29 09:59:37;;;;;;;1.90;0.72;;;;;;;33.54;29.70;100830.69;1655324;86;27404;-67
2022/07/29 10:02:13;;;;;;;1.02;0.70;;;;;;;33.94;29.44;100822.27;1655374;86;25524;-67
2022/07/29 10:04:41;;;;;;;1.37;0.60;;;;;;;33.97;28.88;100809.51;1655556;86;25614;-67
2022/07/29 10:07:08;;;;;;;2.00;0.80;;;;;;;34.01;27.77;100806.56;1655684;86;25876;-68
2022/07/29 10:09:35;;;;;;;3.92;1.10;;;;;;;33.79;27.54;100802.38;1655647;86;25681;-68
2022/07/29 10:12:13;;;;;;;2.33;0.90;;;;;;;33.79;28.05;100803.16;1655587;86;28156;-68
2022/07/29 10:14:40;;;;;;;2.30;0.70;;;;;;;33.83;27.87;100801.02;1655565;86;25598;-67
2022/07/29 10:17:09;;;;;;;2.02;0.78;;;;;;;33.74;27.79;100803.75;1655853;86;25613;-68
2022/07/29 10:19:38;;;;;;;2.55;0.80;;;;;;;33.58;27.46;100807.52;1713346;83;26400;-68
2022/07/29 10:22:08;;;;;;;1.30;0.60;;;;;;;33.40;27.91;100807.38;1721711;83;25633;-68
2022/07/29 10:24:37;;;;;;;1.27;0.80;;;;;;;33.16;27.76;100802.20;1721595;83;27441;-69
2022/07/29 10:27:07;;;;;;;2.08;0.70;;;;;;;32.91;27.96;100801.03;1721493;83;25446;-67
2022/07/29 10:29:34;;;;;;;2.62;0.90;;;;;;;32.71;27.99;100797.08;1721555;83;25451;-69
2022/07/29 10:32:21;;;;;;;1.65;0.50;;;;;;;32.61;27.79;100815.61;1721596;83;26223;-69
2022/07/29 10:35:14;;;;;;;0.80;0.80;;;;;;;32.26;27.74;100795.91;1721113;83;25435;-69
2022/07/29 10:38:06;;;;;;;1.40;1.30;;;;;;;31.89;28.12;100792.59;1720570;83;27448;-69
2022/07/29 10:43:47;;;;;;;2.15;0.80;;;;;;;31.30;28.70;100784.86;1721560;83;25629;-69
2022/07/29 10:46:14;;;;;;;3.95;0.85;;;;;;;31.06;29.04;100780.89;1721477;82;25682;-69
2022/07/29 10:49:20;;;;;;;2.58;1.42;;;;;;;30.75;29.37;100781.24;1721546;83;25596;-68
2022/07/29 10:52:09;;;;;;;2.75;1.15;;;;;;;30.44;29.49;100786.36;1721509;83;27406;-67
2022/07/29 10:54:49;;;;;;;2.50;1.15;;;;;;;30.26;29.90;100777.00;1721631;83;25590;-68
2022/07/29 10:57:20;;;;;;;2.87;0.98;;;;;;;30.47;30.75;100780.70;1721521;83;25652;-67
2022/07/29 10:59:50;;;;;;;1.85;0.90;;;;;;;30.78;30.62;100780.34;1721498;83;25816;-67
2022/07/29 11:02:39;;;;;;;3.10;0.85;;;;;;;31.21;30.36;100780.68;1721485;83;25536;-67
2022/07/29 11:05:09;;;;;;;2.52;0.80;;;;;;;31.58;29.94;100778.47;1721544;83;27277;-66
2022/07/29 11:07:39;;;;;;;2.02;1.00;;;;;;;31.47;29.52;100779.37;1721560;83;25818;-68
2022/07/29 11:10:16;;;;;;;1.15;0.85;;;;;;;31.35;29.52;100779.50;1721579;83;25420;-67
2022/07/29 11:12:47;;;;;;;2.98;0.70;;;;;;;31.17;29.07;100774.39;1720654;83;25693;-68
2022/07/29 11:15:20;;;;;;;1.87;0.70;;;;;;;30.81;29.51;100774.52;1721549;83;25411;-68
2022/07/29 11:18:01;;;;;;;2.85;0.88;;;;;;;30.66;30.02;100768.50;1721567;83;27338;-68
2022/07/29 11:20:40;;;;;;;4.37;1.15;;;;;;;30.57;30.41;100764.92;1721443;83;25553;-67
2022/07/29 11:23:35;;;;;;;1.95;0.80;;;;;;;30.58;30.83;100765.11;1721670;83;25612;-67
2022/07/29 11:26:26;;;;;;;2.40;0.70;;;;;;;30.70;31.01;100758.05;1721329;83;25592;-67
2022/07/29 11:29:06;;;;;;;2.02;0.82;;;;;;;31.04;30.74;100758.98;1721666;83;25437;-67
2022/07/29 11:31:45;;;;;;;1.90;0.75;;;;;;;31.05;29.79;100766.12;1719677;83;27345;-67
2022/07/29 11:34:25;;;;;;;3.45;1.17;;;;;;;31.01;30.06;100765.44;1721484;83;25743;-68
2022/07/29 11:37:14;;;;;;;1.62;0.80;;;;;;;31.17;30.30;100758.25;1721543;83;25562;-68
2022/07/29 11:39:47;;;;;;;5.60;1.98;;;;;;;31.21;30.49;100763.11;1721535;83;26341;-68
2022/07/29 11:42:28;;;;;;;1.27;0.70;;;;;;;31.33;29.93;100767.98;1721457;83;25217;-68
2022/07/29 11:45:22;;;;;;;2.90;0.80;;;;;;;31.15;29.38;100759.30;1721541;83;27381;-67
2022/07/29 11:47:52;;;;;;;2.22;1.02;;;;;;;30.98;29.93;100748.16;1721471;83;25656;-67